Time;durP1;ratioP1;P1;durP2;ratioP2;P2;SDS_P1;SDS_P2;PMS_P1;PMS_P2;Temp;Humidity;BMP_temperature;BMP_pressure;BME280_temperature;BME280_humidity;BME280_pressure;Samples;Min_cycle;Max_cycle;Signal;HPM_P1;HPM_P2
2022/05/09 00:02:11;;;;;;;8.40;3.42;;;;;;;9.11;66.97;102633.41;4988270;28;20460;-83
2022/05/09 00:04:37;;;;;;;6.85;3.38;;;;;;;9.05;67.89;102637.25;5002861;28;20116;-84
2022/05/09 00:07:03;;;;;;;9.52;3.88;;;;;;;9.01;67.88;102638.31;4987910;28;20088;-84
2022/05/09 00:09:29;;;;;;;7.05;3.30;;;;;;;8.94;68.96;102628.59;4999980;28;20042;-83
2022/05/09 00:11:55;;;;;;;13.23;3.63;;;;;;;8.90;68.24;102625.13;4992748;28;20041;-83
2022/05/09 00:14:20;;;;;;;7.50;3.05;;;;;;;8.85;68.94;102628.94;5002973;28;20025;-85
2022/05/09 00:16:46;;;;;;;9.77;3.30;;;;;;;8.81;68.49;102627.28;5005308;28;20045;-84
2022/05/09 00:19:17;;;;;;;10.52;3.53;;;;;;;8.80;68.33;102628.22;4990261;28;20101;-86
2022/05/09 00:21:44;;;;;;;12.52;4.18;;;;;;;8.71;69.40;102615.00;5005651;28;20042;-86
2022/05/09 00:24:14;;;;;;;10.20;3.50;;;;;;;8.67;68.90;102615.13;4989067;28;20025;-86
2022/05/09 00:26:45;;;;;;;8.57;3.20;;;;;;;8.69;68.71;102626.78;5005446;28;20121;-85
2022/05/09 00:29:12;;;;;;;9.05;3.08;;;;;;;8.65;68.80;102618.81;4987410;28;20119;-85
2022/05/09 00:31:39;;;;;;;7.25;3.25;;;;;;;8.61;69.25;102619.88;4982665;28;20038;-86
2022/05/09 00:34:05;;;;;;;10.43;3.85;;;;;;;8.58;68.68;102626.31;5005457;28;20210;-84
2022/05/09 00:36:31;;;;;;;8.48;3.35;;;;;;;8.56;69.22;102617.31;5010254;28;20092;-86
2022/05/09 00:38:59;;;;;;;10.88;3.53;;;;;;;8.55;69.26;102622.81;4969914;28;20076;-82
2022/05/09 00:41:41;;;;;;;9.75;3.15;;;;;;;8.53;69.79;102616.53;5010325;28;20040;-85
2022/05/09 00:44:14;;;;;;;6.22;2.97;;;;;;;8.46;69.67;102615.00;5008430;28;20054;-86
2022/05/09 00:46:42;;;;;;;5.60;3.53;;;;;;;8.47;69.82;102627.59;5006593;28;20038;-82
2022/05/09 00:49:27;;;;;;;8.00;3.65;;;;;;;8.41;71.14;102626.88;5008650;28;20033;-85
2022/05/09 00:52:24;;;;;;;9.18;3.80;;;;;;;8.37;69.76;102617.09;5009985;28;20042;-82
2022/05/09 00:54:57;;;;;;;8.00;3.22;;;;;;;8.29;70.78;102615.53;4987545;28;20045;-85
2022/05/09 00:57:29;;;;;;;7.00;2.97;;;;;;;8.27;70.53;102614.72;4981867;28;20065;-84
2022/05/09 00:59:59;;;;;;;7.50;3.33;;;;;;;8.25;70.63;102619.28;5007785;28;20037;-86
2022/05/09 01:02:26;;;;;;;7.35;3.53;;;;;;;8.19;70.99;102615.84;4994484;28;20307;-83
2022/05/09 01:04:54;;;;;;;9.27;3.15;;;;;;;8.16;71.04;102623.22;4992763;28;20053;-86
2022/05/09 01:07:20;;;;;;;8.10;3.67;;;;;;;8.09;70.80;102614.41;4991791;28;20033;-83
2022/05/09 01:09:46;;;;;;;12.90;4.00;;;;;;;8.04;71.33;102610.06;5008149;28;20089;-86
2022/05/09 01:12:17;;;;;;;10.85;4.20;;;;;;;7.99;71.26;102604.81;5009668;28;20034;-83
2022/05/09 01:14:44;;;;;;;8.93;3.30;;;;;;;7.97;71.41;102598.53;5008855;28;20033;-84
2022/05/09 01:17:09;;;;;;;8.40;3.22;;;;;;;7.91;72.29;102596.03;5006605;28;20025;-85
2022/05/09 01:19:40;;;;;;;5.55;3.10;;;;;;;7.88;72.08;102602.47;5008053;28;20526;-86
2022/05/09 01:22:28;;;;;;;15.02;3.65;;;;;;;7.84;71.02;102600.78;4997454;28;20048;-83
2022/05/09 01:24:55;;;;;;;7.00;2.90;;;;;;;7.76;72.35;102597.44;5007925;28;20026;-84
2022/05/09 01:27:21;;;;;;;4.82;2.95;;;;;;;7.71;72.68;102598.53;5009270;28;20028;-86
2022/05/09 01:30:06;;;;;;;6.68;3.13;;;;;;;7.69;72.01;102601.25;5017121;28;20038;-85
2022/05/09 01:32:40;;;;;;;18.58;3.67;;;;;;;7.65;72.29;102603.22;4973510;28;20217;-84
2022/05/09 01:35:39;;;;;;;6.75;3.25;;;;;;;7.63;71.16;102594.22;4991205;28;21175;-83
2022/05/09 01:38:25;;;;;;;6.65;2.97;;;;;;;7.61;71.90;102598.81;5011378;28;20366;-84
2022/05/09 01:40:51;;;;;;;9.45;3.03;;;;;;;7.57;72.13;102585.44;4990873;28;20038;-86
2022/05/09 01:43:35;;;;;;;7.28;2.97;;;;;;;7.59;71.27;102587.13;5007230;28;20044;-84
2022/05/09 01:46:04;;;;;;;8.30;3.30;;;;;;;7.59;72.33;102588.97;4964537;28;20045;-84
2022/05/09 01:51:15;;;;;;;6.70;3.28;;;;;;;7.47;72.54;102592.97;4987126;28;20042;-85
2022/05/09 01:53:40;;;;;;;8.93;3.50;;;;;;;7.40;73.40;102592.25;4988257;28;20060;-85
2022/05/09 01:56:06;;;;;;;7.38;2.92;;;;;;;7.40;72.47;102597.66;4969709;28;20029;-85
2022/05/09 01:58:31;;;;;;;8.02;3.78;;;;;;;7.35;73.04;102594.22;5002934;28;20034;-83
2022/05/09 02:00:57;;;;;;;13.77;3.40;;;;;;;7.34;72.53;102594.28;4992752;28;20342;-84
2022/05/09 02:03:22;;;;;;;9.07;3.25;;;;;;;7.31;72.90;102591.66;5009162;28;20487;-85
2022/05/09 02:05:48;;;;;;;8.65;3.47;;;;;;;7.25;73.75;102591.84;5000549;28;20041;-83
2022/05/09 02:08:13;;;;;;;7.40;3.05;;;;;;;7.18;73.54;102585.75;5007768;28;20045;-82
2022/05/09 02:10:39;;;;;;;9.40;3.83;;;;;;;7.10;74.91;102585.97;5007789;28;20382;-83
2022/05/09 02:13:04;;;;;;;6.40;2.92;;;;;;;7.04;74.35;102587.94;5005774;28;20112;-84
2022/05/09 02:15:31;;;;;;;9.30;3.30;;;;;;;7.01;73.80;102591.66;4989808;28;20037;-85
2022/05/09 02:18:00;;;;;;;8.38;2.75;;;;;;;7.01;73.90;102585.34;5004445;28;20106;-85
2022/05/09 02:20:25;;;;;;;4.25;3.22;;;;;;;6.99;73.63;102585.38;5008101;28;20076;-85
2022/05/09 02:22:51;;;;;;;5.68;3.13;;;;;;;6.96;73.43;102584.59;5008359;28;20069;-85
2022/05/09 02:25:31;;;;;;;8.73;3.25;;;;;;;6.93;74.26;102585.56;5007254;28;20501;-84
2022/05/09 02:28:02;;;;;;;5.68;3.25;;;;;;;6.90;73.93;102583.84;5008138;28;20033;-86
2022/05/09 02:30:28;;;;;;;9.98;3.92;;;;;;;6.83;74.03;102586.78;4988513;28;20041;-85
2022/05/09 02:32:53;;;;;;;8.70;4.32;;;;;;;6.81;73.99;102585.94;5005643;28;20068;-83
2022/05/09 02:35:20;;;;;;;11.20;3.53;;;;;;;6.79;74.81;102580.56;5014471;28;20037;-84
2022/05/09 02:37:48;;;;;;;10.63;3.60;;;;;;;6.75;74.70;102581.56;5007908;28;20080;-85
2022/05/09 02:40:14;;;;;;;8.70;3.30;;;;;;;6.67;74.81;102572.81;4990150;28;20037;-86
2022/05/09 02:42:39;;;;;;;14.60;4.10;;;;;;;6.64;74.81;102581.00;5000199;28;20053;-84
2022/05/09 02:45:06;;;;;;;11.43;3.40;;;;;;;6.61;75.66;102579.25;4985726;28;20227;-83
2022/05/09 02:47:31;;;;;;;11.45;3.33;;;;;;;6.63;75.03;102580.13;4979855;28;20041;-86
2022/05/09 02:49:57;;;;;;;9.80;4.25;;;;;;;6.58;75.17;102573.94;4986793;28;20466;-85
2022/05/09 02:52:22;;;;;;;5.13;3.00;;;;;;;6.61;74.69;102583.78;5004125;28;20056;-84
2022/05/09 02:54:48;;;;;;;10.63;4.00;;;;;;;6.56;75.07;102588.44;4994195;28;20144;-85
2022/05/09 02:57:14;;;;;;;10.77;3.15;;;;;;;6.55;75.01;102581.25;4993250;28;20038;-84
2022/05/09 02:59:40;;;;;;;8.55;3.35;;;;;;;6.50;75.56;102573.28;4998124;28;20175;-86
2022/05/09 03:02:07;;;;;;;8.07;3.08;;;;;;;6.48;75.65;102575.16;4985640;28;20129;-83
2022/05/09 03:04:41;;;;;;;13.32;3.65;;;;;;;6.43;76.19;102568.94;4981823;28;20045;-86
2022/05/09 03:07:14;;;;;;;7.65;3.60;;;;;;;6.43;75.55;102566.25;5007872;28;20346;-83
2022/05/09 03:09:42;;;;;;;7.57;3.47;;;;;;;6.46;75.66;102571.56;5004436;28;20038;-87
2022/05/09 03:12:10;;;;;;;8.93;3.90;;;;;;;6.43;75.14;102570.75;5006993;28;20034;-86
2022/05/09 03:14:36;;;;;;;9.13;3.13;;;;;;;6.39;75.68;102564.59;5004442;28;20325;-86
2022/05/09 03:17:03;;;;;;;10.70;4.25;;;;;;;6.39;75.90;102573.56;5002487;28;20396;-86
2022/05/09 03:19:29;;;;;;;7.55;3.53;;;;;;;6.35;76.15;102571.88;4982432;28;20101;-84
2022/05/09 03:21:55;;;;;;;8.75;3.58;;;;;;;6.30;75.78;102568.41;4994467;28;20057;-86
2022/05/09 03:24:21;;;;;;;6.55;3.10;;;;;;;6.25;76.30;102566.75;4987545;28;20049;-84
2022/05/09 03:26:47;;;;;;;11.45;3.53;;;;;;;6.25;76.12;102567.66;4993204;28;20461;-84
2022/05/09 03:29:13;;;;;;;7.63;3.13;;;;;;;6.22;76.36;102565.03;5006209;28;20034;-86
2022/05/09 03:31:39;;;;;;;8.13;3.70;;;;;;;6.19;76.40;102559.69;5002546;28;20339;-84
2022/05/09 03:34:04;;;;;;;5.80;3.15;;;;;;;6.11;77.13;102562.63;4988189;28;20049;-83
2022/05/09 03:36:30;;;;;;;4.93;2.95;;;;;;;6.09;76.14;102550.06;4989263;28;20489;-83
2022/05/09 03:38:58;;;;;;;10.48;3.78;;;;;;;6.09;75.89;102559.06;5006146;28;20045;-84
2022/05/09 03:41:24;;;;;;;11.70;3.47;;;;;;;6.06;76.26;102545.63;4970506;28;20041;-86
2022/05/09 03:43:49;;;;;;;9.57;3.72;;;;;;;6.03;76.35;102556.53;5006200;28;20038;-85
2022/05/09 03:46:16;;;;;;;13.25;3.38;;;;;;;5.99;76.63;102559.34;5009852;28;20064;-84
2022/05/09 03:48:41;;;;;;;6.07;2.92;;;;;;;5.95;76.93;102552.25;4988143;28;20080;-86
2022/05/09 03:51:07;;;;;;;10.60;3.67;;;;;;;5.95;76.89;102563.94;5011419;28;20065;-87
2022/05/09 03:53:34;;;;;;;7.55;3.20;;;;;;;5.91;76.81;102555.91;4987662;28;20053;-83
2022/05/09 03:56:00;;;;;;;8.93;3.80;;;;;;;5.89;76.59;102554.13;4991924;28;20444;-83
2022/05/09 03:58:26;;;;;;;8.98;3.13;;;;;;;5.92;76.39;102555.88;4979090;28;20042;-87
2022/05/09 04:00:52;;;;;;;9.32;3.88;;;;;;;5.92;76.07;102555.88;4973140;28;20026;-86
2022/05/09 04:03:17;;;;;;;12.90;3.83;;;;;;;5.92;75.78;102558.59;4971348;28;20128;-86
2022/05/09 04:05:43;;;;;;;9.07;3.40;;;;;;;5.92;76.32;102555.88;4989415;28;20053;-84
2022/05/09 04:08:12;;;;;;;14.82;3.72;;;;;;;5.91;75.96;102555.91;5009393;28;20509;-86
2022/05/09 04:10:40;;;;;;;6.80;4.15;;;;;;;5.87;77.56;102558.69;4994548;28;20042;-87
2022/05/09 04:13:05;;;;;;;9.77;3.95;;;;;;;5.85;77.09;102559.66;5009163;28;20018;-87
2022/05/09 04:18:17;;;;;;;11.70;3.85;;;;;;;5.86;77.37;102559.59;4983159;28;20046;-87
2022/05/09 04:20:44;;;;;;;9.25;3.78;;;;;;;5.91;77.21;102555.91;4993743;28;20046;-87
2022/05/09 04:23:09;;;;;;;7.85;3.63;;;;;;;5.89;77.12;102551.44;4963686;28;20373;-85
2022/05/09 04:25:36;;;;;;;13.23;5.15;;;;;;;5.89;76.86;102542.44;5006633;28;20025;-87
2022/05/09 04:28:04;;;;;;;7.07;3.20;;;;;;;5.92;77.98;102546.91;4993617;28;20069;-86
2022/05/09 04:30:31;;;;;;;9.10;4.00;;;;;;;5.90;77.44;102549.63;5013279;28;20108;-86
2022/05/09 04:32:56;;;;;;;9.80;3.78;;;;;;;5.87;78.31;102556.00;4983694;28;20622;-85
2022/05/09 04:35:22;;;;;;;8.30;3.90;;;;;;;5.84;78.11;102545.25;5029247;28;20038;-84
2022/05/09 04:37:49;;;;;;;6.47;3.40;;;;;;;5.86;78.41;102545.22;5007427;28;20463;-85
2022/05/09 04:40:24;;;;;;;7.85;3.42;;;;;;;5.89;77.91;102539.75;5004316;28;20041;-85
2022/05/09 04:42:49;;;;;;;10.23;3.65;;;;;;;5.87;77.77;102539.81;4992811;28;20089;-85
2022/05/09 04:45:16;;;;;;;7.25;3.25;;;;;;;5.92;78.19;102544.19;4990980;28;20038;-84
2022/05/09 04:47:42;;;;;;;8.05;4.05;;;;;;;5.91;78.53;102543.28;5005615;28;20044;-85
2022/05/09 04:50:11;;;;;;;7.70;4.03;;;;;;;5.96;78.40;102540.50;5004801;28;20108;-84
2022/05/09 04:52:36;;;;;;;10.32;4.32;;;;;;;6.02;77.66;102545.75;4986243;28;20067;-85
2022/05/09 04:55:03;;;;;;;10.75;4.10;;;;;;;6.07;77.31;102544.72;5007077;28;20030;-85
2022/05/09 04:57:28;;;;;;;7.40;3.90;;;;;;;6.08;78.01;102541.06;4984901;28;20111;-87
2022/05/09 04:59:54;;;;;;;14.63;3.67;;;;;;;6.17;77.06;102544.47;4989932;28;20053;-84
2022/05/09 05:02:19;;;;;;;11.65;4.18;;;;;;;6.22;77.77;102538.00;4984411;28;20077;-87
2022/05/09 05:04:45;;;;;;;9.75;3.72;;;;;;;6.25;77.41;102529.81;4988356;28;20034;-85
2022/05/09 05:07:10;;;;;;;9.18;4.03;;;;;;;6.31;77.04;102534.16;5008299;28;20379;-84
2022/05/09 05:09:36;;;;;;;14.15;4.10;;;;;;;6.34;77.42;102526.88;5009433;28;20038;-84
2022/05/09 05:12:02;;;;;;;12.02;4.45;;;;;;;6.37;78.59;102526.75;4989636;28;20030;-86
2022/05/09 05:14:28;;;;;;;8.80;4.18;;;;;;;6.43;78.05;102527.50;4992770;28;20069;-85
2022/05/09 05:17:00;;;;;;;9.65;4.50;;;;;;;6.51;77.82;102539.88;5010439;28;20065;-84
2022/05/09 05:19:33;;;;;;;19.70;5.03;;;;;;;6.60;77.21;102536.03;4979868;28;20037;-85
2022/05/09 05:22:00;;;;;;;11.60;4.78;;;;;;;6.65;77.72;102529.56;5017887;28;20499;-86
2022/05/09 05:24:27;;;;;;;12.27;5.20;;;;;;;6.75;77.56;102534.69;5017372;28;20127;-86
2022/05/09 05:26:54;;;;;;;13.82;5.88;;;;;;;6.81;77.03;102540.84;4988127;28;20411;-87
2022/05/09 05:29:19;;;;;;;8.23;4.95;;;;;;;6.85;77.27;102539.81;5005974;28;20033;-85
2022/05/09 05:31:45;;;;;;;14.70;5.18;;;;;;;6.93;77.85;102535.97;4985980;28;20099;-86
2022/05/09 05:34:11;;;;;;;16.05;5.07;;;;;;;6.98;77.14;102529.50;5005821;28;20022;-85
2022/05/09 05:36:36;;;;;;;12.25;4.63;;;;;;;7.08;77.04;102528.28;5008942;28;20041;-86
2022/05/09 05:39:03;;;;;;;13.68;4.60;;;;;;;7.17;75.91;102543.34;4989277;28;20069;-87
2022/05/09 05:41:31;;;;;;;17.02;5.30;;;;;;;7.20;77.71;102534.25;4975512;28;20346;-84
2022/05/09 05:43:57;;;;;;;12.20;5.53;;;;;;;7.29;77.63;102536.69;4994985;28;20033;-84
2022/05/09 05:46:23;;;;;;;9.75;4.63;;;;;;;7.33;77.49;102533.81;5003239;28;20065;-86
2022/05/09 05:48:49;;;;;;;15.57;5.03;;;;;;;7.40;78.62;102534.50;4988033;28;20053;-85
2022/05/09 05:51:14;;;;;;;21.25;6.25;;;;;;;7.48;78.11;102529.72;5009125;28;20038;-86
2022/05/09 05:53:40;;;;;;;12.98;5.18;;;;;;;7.56;78.30;102529.50;4986884;28;20032;-87
2022/05/09 05:56:06;;;;;;;14.20;5.97;;;;;;;7.65;78.26;102543.63;4984660;28;20471;-85
2022/05/09 05:58:31;;;;;;;17.70;5.63;;;;;;;7.71;77.81;102538.94;4975332;28;20110;-87
2022/05/09 06:00:57;;;;;;;18.23;7.10;;;;;;;7.80;77.55;102542.22;4987996;28;20038;-87
2022/05/09 06:03:23;;;;;;;14.63;5.63;;;;;;;7.85;76.60;102539.34;4984489;28;20038;-85
2022/05/09 06:05:49;;;;;;;16.40;6.18;;;;;;;7.93;76.63;102538.16;5004465;28;20049;-87
2022/05/09 06:08:15;;;;;;;8.95;5.15;;;;;;;8.00;77.05;102535.22;5009195;28;20047;-84
2022/05/09 06:10:40;;;;;;;19.08;5.57;;;;;;;8.10;76.71;102533.97;4988189;28;20038;-85
2022/05/09 06:13:06;;;;;;;29.20;6.15;;;;;;;8.16;75.89;102537.34;5006741;28;20052;-86
2022/05/09 06:15:33;;;;;;;22.63;6.55;;;;;;;8.23;76.80;102529.00;4988541;28;20046;-86
2022/05/09 06:18:00;;;;;;;16.98;5.97;;;;;;;8.29;77.04;102532.38;5003885;28;20106;-83
2022/05/09 06:20:31;;;;;;;12.88;5.75;;;;;;;8.37;74.64;102534.84;5008059;28;20034;-84
2022/05/09 06:22:59;;;;;;;13.93;5.35;;;;;;;8.45;74.34;102537.28;4974268;28;20355;-84
2022/05/09 06:25:26;;;;;;;17.33;5.97;;;;;;;8.50;75.41;102533.47;5007575;28;20038;-85
2022/05/09 06:27:52;;;;;;;15.00;6.22;;;;;;;8.59;75.83;102529.53;5007488;28;20180;-84
2022/05/09 06:30:19;;;;;;;12.25;6.13;;;;;;;8.71;77.02;102531.75;5006424;28;20026;-86
2022/05/09 06:32:45;;;;;;;13.30;5.97;;;;;;;8.80;76.08;102541.38;5005799;28;20139;-86
2022/05/09 06:35:14;;;;;;;14.35;6.15;;;;;;;8.89;75.23;102530.19;5007349;28;20112;-86
2022/05/09 06:37:41;;;;;;;18.95;6.40;;;;;;;8.94;75.71;102523.63;4986158;28;20034;-85
2022/05/09 06:40:09;;;;;;;12.77;6.10;;;;;;;9.10;74.14;102540.22;4979780;28;20029;-86
2022/05/09 06:42:35;;;;;;;10.60;5.60;;;;;;;9.20;74.20;102532.59;5003030;28;20057;-86
2022/05/09 06:45:00;;;;;;;12.23;6.07;;;;;;;9.31;73.20;102534.88;4976608;28;20113;-86
2022/05/09 06:47:26;;;;;;;15.68;6.35;;;;;;;9.38;73.86;102526.44;4996952;28;20140;-84
2022/05/09 06:49:51;;;;;;;19.35;6.60;;;;;;;9.47;73.71;102522.47;4960494;28;20038;-83
2022/05/09 06:52:16;;;;;;;11.50;5.65;;;;;;;9.54;72.59;102521.25;5006396;28;20538;-86
2022/05/09 06:54:43;;;;;;;14.80;6.15;;;;;;;9.62;72.53;102529.97;5007603;28;20121;-84
2022/05/09 06:57:08;;;;;;;12.68;6.90;;;;;;;9.75;72.50;102534.91;5007176;28;20041;-86
2022/05/09 06:59:35;;;;;;;14.90;6.40;;;;;;;9.84;73.09;102526.34;5002481;28;20463;-86
2022/05/09 07:02:01;;;;;;;13.63;5.97;;;;;;;10.04;71.44;102523.66;5003876;28;20101;-86
2022/05/09 07:04:27;;;;;;;9.85;6.32;;;;;;;10.20;71.54;102521.16;4998307;28;20053;-84
2022/05/09 07:06:53;;;;;;;14.75;6.75;;;;;;;10.25;71.54;102519.16;5006222;28;20038;-86
2022/05/09 07:09:18;;;;;;;15.05;6.65;;;;;;;10.37;71.39;102528.59;5003628;28;20337;-86
2022/05/09 07:11:44;;;;;;;18.08;7.78;;;;;;;10.44;71.59;102522.84;5004031;28;20041;-87
2022/05/09 07:14:10;;;;;;;21.35;7.00;;;;;;;10.58;71.28;102518.56;5002159;28;20616;-85
2022/05/09 07:16:36;;;;;;;10.48;5.88;;;;;;;10.65;71.99;102523.69;5004264;28;20030;-86
2022/05/09 07:19:04;;;;;;;17.48;6.95;;;;;;;10.86;70.69;102523.63;5005329;28;20065;-85
2022/05/09 07:21:30;;;;;;;17.88;6.40;;;;;;;11.02;69.93;102513.81;5005890;28;20168;-84
2022/05/09 07:23:56;;;;;;;16.77;6.97;;;;;;;11.21;69.01;102514.69;5006093;28;20044;-84
2022/05/09 07:26:21;;;;;;;17.15;6.60;;;;;;;11.36;66.94;102518.50;5004724;28;20046;-86
2022/05/09 07:28:47;;;;;;;22.73;7.05;;;;;;;11.47;67.05;102510.69;5005937;28;20041;-86
2022/05/09 07:31:12;;;;;;;15.25;6.07;;;;;;;11.57;66.34;102518.41;4981647;28;20394;-84
2022/05/09 07:33:38;;;;;;;18.63;7.03;;;;;;;11.66;67.47;102515.22;5004642;28;20393;-87
2022/05/09 07:36:04;;;;;;;10.55;5.38;;;;;;;11.77;67.00;102514.69;5007395;28;20464;-84
2022/05/09 07:38:30;;;;;;;18.42;6.40;;;;;;;11.88;66.33;102512.31;5007109;28;20105;-85
2022/05/09 07:40:56;;;;;;;13.15;6.45;;;;;;;11.98;67.88;102508.13;5007434;28;20164;-85
2022/05/09 07:43:24;;;;;;;19.60;7.13;;;;;;;12.10;67.41;102510.25;4986622;28;20377;-86
2022/05/09 07:45:52;;;;;;;17.60;6.45;;;;;;;12.33;68.70;102510.88;4973847;28;20061;-86
2022/05/09 07:48:21;;;;;;;15.15;6.03;;;;;;;12.47;63.55;102520.09;5002652;28;20030;-86
2022/05/09 07:50:48;;;;;;;17.90;7.13;;;;;;;12.97;65.63;102516.44;5006758;28;20057;-85
2022/05/09 07:53:18;;;;;;;16.90;7.00;;;;;;;13.62;64.58;102521.88;4985711;28;20398;-85
2022/05/09 07:55:47;;;;;;;15.07;6.30;;;;;;;14.43;60.88;102522.47;4968995;28;20045;-87
2022/05/09 07:58:17;;;;;;;16.05;6.28;;;;;;;15.19;58.72;102511.25;4981233;28;20133;-85
2022/05/09 08:00:45;;;;;;;10.73;5.40;;;;;;;15.92;58.11;102505.47;4988917;28;20474;-87
2022/05/09 08:03:22;;;;;;;11.73;6.45;;;;;;;16.69;57.43;102511.06;4981840;28;20070;-86
2022/05/09 08:05:49;;;;;;;15.23;5.88;;;;;;;17.29;51.43;102511.25;4972709;28;20049;-85
2022/05/09 08:08:15;;;;;;;16.10;5.75;;;;;;;17.78;50.48;102507.59;5006160;28;20054;-87
2022/05/09 08:10:42;;;;;;;17.27;6.00;;;;;;;18.44;49.40;102519.00;5005743;28;20242;-87
2022/05/09 08:13:08;;;;;;;13.93;5.45;;;;;;;18.95;48.01;102510.31;5004554;28;20026;-86
2022/05/09 08:15:34;;;;;;;12.68;5.50;;;;;;;19.44;47.99;102506.25;5005415;28;20026;-88
2022/05/09 08:18:01;;;;;;;15.70;6.00;;;;;;;19.95;46.36;102511.16;4971025;28;20033;-87
2022/05/09 08:20:30;;;;;;;11.20;6.03;;;;;;;20.18;45.31;102503.66;5004698;28;20037;-86
2022/05/09 08:23:06;;;;;;;11.63;5.28;;;;;;;19.94;44.95;102520.47;5019111;28;20038;-86
2022/05/09 08:25:36;;;;;;;13.85;6.22;;;;;;;19.87;42.43;102510.97;5004623;28;20038;-85
2022/05/09 08:28:03;;;;;;;15.60;6.15;;;;;;;19.94;42.41;102509.41;5004998;28;20695;-84
2022/05/09 08:30:32;;;;;;;18.20;5.43;;;;;;;20.43;43.95;102509.81;5005146;28;20109;-86
2022/05/09 08:32:59;;;;;;;9.48;5.20;;;;;;;20.83;42.99;102499.75;4979177;28;20092;-87
2022/05/09 08:35:24;;;;;;;13.25;5.40;;;;;;;21.15;41.58;102502.38;5006079;28;20508;-87
2022/05/09 08:37:49;;;;;;;9.00;5.22;;;;;;;21.46;40.82;102505.16;5005182;28;20041;-87
2022/05/09 08:40:17;;;;;;;10.18;5.38;;;;;;;22.01;41.86;102494.44;5005946;28;20038;-86
2022/05/09 08:42:53;;;;;;;15.15;5.80;;;;;;;22.19;42.38;102507.56;5003870;28;20044;-85
2022/05/09 08:45:39;;;;;;;12.50;5.10;;;;;;;22.36;42.15;102504.06;5003296;28;20052;-87
2022/05/09 08:48:45;;;;;;;12.30;5.80;;;;;;;22.74;42.25;102505.00;5004728;28;20044;-86
2022/05/09 08:51:35;;;;;;;11.23;5.43;;;;;;;23.04;38.31;102499.25;4998082;28;20423;-86
2022/05/09 08:54:06;;;;;;;13.30;5.25;;;;;;;23.24;40.18;102493.59;4996658;28;20083;-86
2022/05/09 08:56:33;;;;;;;14.68;6.00;;;;;;;23.19;37.63;102495.97;5008932;28;20041;-86
2022/05/09 08:59:08;;;;;;;8.88;5.40;;;;;;;22.90;35.58;102494.19;5004969;28;20067;-87
2022/05/09 09:01:44;;;;;;;10.80;5.90;;;;;;;22.82;38.13;102497.69;5003017;28;20050;-84
2022/05/09 09:04:19;;;;;;;14.35;5.45;;;;;;;23.15;39.07;102484.28;5001272;28;20104;-87
2022/05/09 09:06:50;;;;;;;17.23;6.15;;;;;;;22.95;36.08;102491.84;5010479;28;20072;-85
2022/05/09 09:09:40;;;;;;;12.77;6.00;;;;;;;22.59;36.78;102485.19;5009273;28;20184;-86
2022/05/09 09:12:24;;;;;;;14.43;6.50;;;;;;;22.07;36.94;102477.22;4974463;28;20084;-85
2022/05/09 09:15:09;;;;;;;12.63;5.45;;;;;;;22.38;38.45;102474.28;5001526;28;20041;-86
2022/05/09 09:17:47;;;;;;;12.40;5.95;;;;;;;22.90;36.72;102472.00;5009459;28;20517;-87
2022/05/09 09:20:32;;;;;;;13.30;5.38;;;;;;;23.36;38.98;102476.59;5009263;28;20037;-85
2022/05/09 09:23:14;;;;;;;18.60;5.85;;;;;;;23.76;36.63;102469.75;5009164;28;20039;-86
2022/05/09 09:25:59;;;;;;;11.65;4.68;;;;;;;24.10;34.65;102471.78;5009149;28;20434;-86
2022/05/09 09:28:30;;;;;;;11.80;5.32;;;;;;;24.43;35.90;102472.97;5008093;28;20493;-86
2022/05/09 09:30:57;;;;;;;13.82;4.53;;;;;;;24.71;36.15;102461.69;5003049;28;20064;-87
2022/05/09 09:33:24;;;;;;;13.05;4.88;;;;;;;24.87;34.01;102468.22;4972382;28;20315;-86
2022/05/09 09:36:05;;;;;;;9.65;5.50;;;;;;;24.71;35.92;102459.75;5009505;28;20095;-86
2022/05/09 09:39:10;;;;;;;10.70;5.63;;;;;;;24.20;35.89;102458.66;4996285;28;20125;-86
2022/05/09 09:41:36;;;;;;;12.18;4.57;;;;;;;23.74;33.99;102469.03;5009649;28;20044;-84
2022/05/09 09:44:09;;;;;;;11.75;5.68;;;;;;;23.51;32.87;102465.81;5002663;28;20030;-83
2022/05/09 09:47:03;;;;;;;9.05;4.57;;;;;;;23.71;37.48;102466.56;5005714;28;20041;-87
2022/05/09 09:49:30;;;;;;;13.73;6.10;;;;;;;23.93;33.25;102457.75;4999271;28;20113;-85
2022/05/09 09:51:57;;;;;;;11.32;4.88;;;;;;;24.44;37.66;102460.81;5009013;28;20042;-86
2022/05/09 09:54:30;;;;;;;9.35;5.05;;;;;;;25.04;34.89;102452.47;5008258;28;20068;-85
2022/05/09 09:56:55;;;;;;;12.73;5.30;;;;;;;25.17;34.41;102455.69;4990193;28;20038;-85
2022/05/09 09:59:23;;;;;;;12.60;5.57;;;;;;;25.48;34.01;102445.88;5001379;28;20363;-86
2022/05/09 10:02:08;;;;;;;13.38;4.82;;;;;;;25.74;36.61;102446.63;5003106;28;20072;-88
2022/05/09 10:04:34;;;;;;;12.95;4.70;;;;;;;26.00;34.80;102445.63;4962884;28;20046;-86
2022/05/09 10:07:04;;;;;;;16.35;4.90;;;;;;;26.15;33.17;102447.53;4983910;28;20042;-85
2022/05/09 10:09:38;;;;;;;11.10;5.13;;;;;;;25.80;30.32;102439.53;4975673;28;20088;-87
2022/05/09 10:12:31;;;;;;;9.98;5.30;;;;;;;25.61;34.60;102435.09;4990867;28;20493;-85
2022/05/09 10:14:56;;;;;;;11.07;5.50;;;;;;;25.63;33.15;102439.44;4987357;28;20290;-86
2022/05/09 10:17:24;;;;;;;13.98;5.80;;;;;;;25.85;32.93;102425.94;5006238;28;20074;-86
2022/05/09 10:19:51;;;;;;;11.85;5.18;;;;;;;25.86;32.68;102416.50;5005794;28;20195;-86
2022/05/09 10:25:30;;;;;;;7.25;4.63;;;;;;;25.37;32.29;102414.50;5000291;28;20045;-87
2022/05/09 10:28:19;;;;;;;10.23;4.63;;;;;;;25.81;32.79;102418.94;4988756;28;20061;-85
2022/05/09 10:30:48;;;;;;;10.52;4.18;;;;;;;26.07;32.37;102416.88;4988935;28;20580;-86
2022/05/09 10:33:38;;;;;;;8.98;4.60;;;;;;;26.39;33.79;102413.19;4981399;28;20018;-86
2022/05/09 10:36:24;;;;;;;10.63;4.75;;;;;;;26.66;33.34;102411.03;4987330;28;20387;-85
2022/05/09 10:38:58;;;;;;;13.32;4.65;;;;;;;26.84;30.71;102408.00;4990437;28;20041;-86
2022/05/09 10:41:32;;;;;;;11.10;4.35;;;;;;;26.98;30.97;102404.47;4994462;28;20036;-85
2022/05/09 10:44:12;;;;;;;11.18;4.88;;;;;;;26.74;30.10;102398.97;4985099;28;20398;-85
2022/05/09 10:46:51;;;;;;;12.85;5.10;;;;;;;26.46;28.94;102407.78;4988543;28;20037;-85
2022/05/09 10:49:50;;;;;;;10.32;5.10;;;;;;;26.44;31.94;102410.75;4978688;28;20027;-84
2022/05/09 10:52:41;;;;;;;12.23;4.95;;;;;;;26.57;32.18;102404.59;5008492;28;20061;-86
2022/05/09 10:55:10;;;;;;;14.80;5.43;;;;;;;26.72;32.25;102401.97;5008321;28;20457;-85
2022/05/09 10:57:54;;;;;;;9.35;5.30;;;;;;;26.74;29.65;102402.63;4975075;28;20325;-87
2022/05/09 11:00:24;;;;;;;7.68;5.07;;;;;;;26.18;28.85;102396.09;5006458;28;20034;-85
2022/05/09 11:03:24;;;;;;;10.38;5.18;;;;;;;26.07;31.84;102393.69;5004427;28;20041;-87
2022/05/09 11:06:32;;;;;;;9.90;4.97;;;;;;;26.18;30.54;102385.81;5003325;28;20044;-84
2022/05/09 11:08:57;;;;;;;11.57;5.38;;;;;;;26.57;29.54;102385.06;4960197;28;20046;-82
2022/05/09 11:11:32;;;;;;;10.25;5.50;;;;;;;26.61;27.97;102383.66;4988934;28;20038;-86
2022/05/09 11:14:33;;;;;;;12.75;4.93;;;;;;;26.38;28.87;102374.25;5005967;28;20361;-86
2022/05/09 11:17:27;;;;;;;10.02;5.47;;;;;;;26.73;29.75;102381.34;5004349;28;20072;-83
2022/05/09 11:20:19;;;;;;;13.23;5.38;;;;;;;26.77;32.29;102363.19;5000500;28;20048;-84
2022/05/09 11:22:59;;;;;;;11.02;4.85;;;;;;;27.26;30.66;102362.94;5006580;28;21416;-85
2022/05/09 11:26:00;;;;;;;14.18;5.20;;;;;;;27.39;31.74;102365.16;4977755;28;20035;-88
2022/05/09 11:28:58;;;;;;;11.00;5.25;;;;;;;27.37;28.96;102358.84;4988622;28;20045;-87
2022/05/09 11:31:58;;;;;;;12.27;5.10;;;;;;;27.19;31.16;102353.56;5004170;28;20029;-85
2022/05/09 11:34:42;;;;;;;10.98;5.07;;;;;;;27.24;29.81;102361.41;4967188;28;20124;-84
2022/05/09 11:37:24;;;;;;;9.52;5.30;;;;;;;27.49;31.07;102356.50;5007701;28;20115;-86
2022/05/09 11:40:21;;;;;;;9.02;5.35;;;;;;;27.54;30.29;102345.63;4990644;28;20037;-87
2022/05/09 11:43:28;;;;;;;12.02;5.40;;;;;;;27.37;27.75;102342.97;4972631;28;20037;-83
2022/05/09 11:46:12;;;;;;;16.45;5.82;;;;;;;27.34;31.32;102345.25;4988125;28;20405;-85
2022/05/09 11:48:56;;;;;;;10.80;5.50;;;;;;;27.29;29.37;102345.81;4980459;28;20022;-85
2022/05/09 11:51:40;;;;;;;8.93;4.80;;;;;;;27.07;29.23;102338.25;5007052;28;20129;-85